Christian Radich — LJLM — position and weather

sailwx.info

Track history (hours):
 
Tides and Currents Weather Stations Pressure Air Temp Water Temp Dewpoint Dewpoint Depression Visibility Wind Speed Wind Dir Waves Ship Positions

Christian Radich (Norway)

Last reported at 2020-Jul-09 03:00 UTC. Time now 2020-Jul-09 05:00 UTC.
Position N 66°14' E 012°53'.

Length 63 m; draft 4.9 m.

Type: Sailing vessel. MMSI: 258373000.

Date/timePositionNaut miles runAvg speedWind from/ knotsBaromVisibWave heightAir tempDewpointWater temp
2020-Jul-09 03:00N 66°14' E 012°53'19 3.9
2020-Jul-08 22:00N 65°58' E 012°26'6 3.7
2020-Jul-08 20:30N 65°52' E 012°23'12 3.8
2020-Jul-08 17:30N 65°41' E 012°15'2 4.0
2020-Jul-08 17:00N 65°39' E 012°15'6 3.9
2020-Jul-08 15:29N 65°33' E 012°13'5 3.2
2020-Jul-08 13:59N 65°29' E 012°13'0 0.0
2020-Jul-08 13:29N 65°29' E 012°13'0 0.0
2020-Jul-08 13:00N 65°29' E 012°13'0 0.0
2020-Jul-08 12:30N 65°29' E 012°13'0 0.0
2020-Jul-08 11:00N 65°29' E 012°13'6 1.1
2020-Jul-08 05:30N 65°34' E 012°13'12 4.7
2020-Jul-08 03:00N 65°44' E 012°28'6 1.5
2020-Jul-07 23:00N 65°42' E 012°15'5 5.0
2020-Jul-07 21:59N 65°37' E 012°13'9 5.8
2020-Jul-07 20:30N 65°30' E 011°60'8 3.9
2020-Jul-07 18:30N 65°23' E 012°05'2 1.0
2020-Jul-07 16:00N 65°25' E 012°08'0 0.1
2020-Jul-07 14:59N 65°25' E 012°08'0 0.0
2020-Jul-07 13:59N 65°25' E 012°08'0 0.0
2020-Jul-07 13:00N 65°25' E 012°08'0 0.0
2020-Jul-07 11:28N 65°25' E 012°08'0 0.0
2020-Jul-07 10:58N 65°25' E 012°08'15 4.3
2020-Jul-07 07:30N 65°12' E 011°52'7 3.4
2020-Jul-07 05:30N 65°05' E 011°48'2 3.0
2020-Jul-07 05:00N 65°04' E 011°46'5 3.5
2020-Jul-07 03:30N 65°00' E 011°37'2 4.2
2020-Jul-07 02:58N 64°58' E 011°34'18 6.0
2020-Jul-07 00:00N 64°46' E 011°03'9 5.8
2020-Jul-06 22:30N 64°41' E 010°48'20 5.6
2020-Jul-06 18:59N 64°35' E 010°04'2 4.4
2020-Jul-06 18:30N 64°35' E 009°59'5 5.0
2020-Jul-06 17:30N 64°35' E 009°47'3 5.5
2020-Jul-06 17:00N 64°34' E 009°41'24 4.8
2020-Jul-06 12:00N 64°29' E 008°47'4 4.3
2020-Jul-06 11:00N 64°26' E 008°55'4 4.4
2020-Jul-06 10:00N 64°23' E 009°02'2 4.4
2020-Jul-06 09:30N 64°21' E 009°06'5 5.0
2020-Jul-06 08:30N 64°18' E 009°13'3 5.7
2020-Jul-06 08:00N 64°16' E 009°18'19 5.4
2020-Jul-06 04:29N 64°01' E 009°46'10 6.7
2020-Jul-06 03:00N 63°51' E 009°40'4 7.6
2020-Jul-06 02:30N 63°48' E 009°35'8 7.9
2020-Jul-06 01:30N 63°41' E 009°29'24 6.9
2020-Jul-05 22:00N 63°27' E 008°46'14 7.0
2020-Jul-05 20:00N 63°20' E 008°18'28 7.1
2020-Jul-05 16:00N 63°04' E 007°25'4 7.5
2020-Jul-05 15:30N 63°03' E 007°17'22 7.3
2020-Jul-05 12:30N 62°50' E 006°39'16 8.1
2020-Jul-05 10:30N 62°37' E 006°18'10 1.9
2020-Jul-05 05:26N 62°28' E 006°09'0 0.0
2020-Jul-05 04:00N 62°28' E 006°09'0 0.0
2020-Jul-05 03:00N 62°28' E 006°09'0 0.0
2020-Jul-05 01:58N 62°28' E 006°09'0 0.0
2020-Jul-04 22:27N 62°28' E 006°09'0 0.0
2020-Jul-04 19:59N 62°28' E 006°09'0 0.0
2020-Jul-04 19:29N 62°28' E 006°09'0 0.0
2020-Jul-04 18:30N 62°28' E 006°09'0 0.0
2020-Jul-04 12:28N 62°28' E 006°09'0 0.0
2020-Jul-04 11:29N 62°28' E 006°09'10 1.2
2020-Jul-04 03:00N 62°25' E 006°31'19 3.5
2020-Jul-03 21:30N 62°12' E 007°01'2 4.5
2020-Jul-03 21:00N 62°10' E 007°01'7 2.2
2020-Jul-03 18:00N 62°06' E 007°12'0 0.0
2020-Jul-03 16:29N 62°06' E 007°12'0 0.1
2020-Jul-03 16:00N 62°06' E 007°12'0 0.1
2020-Jul-03 15:30N 62°06' E 007°12'0 0.1
2020-Jul-03 14:30N 62°06' E 007°12'0 0.1
2020-Jul-03 14:00N 62°06' E 007°12'0 0.0
2020-Jul-03 13:30N 62°06' E 007°12'0 0.0
2020-Jul-03 10:28N 62°06' E 007°12'0 0.1
2020-Jul-03 10:00N 62°06' E 007°12'0 0.0
2020-Jul-03 09:30N 62°06' E 007°12'0 0.0
2020-Jul-03 09:00N 62°06' E 007°12'0 0.0
2020-Jul-03 08:30N 62°06' E 007°12'3 1.7
2020-Jul-03 06:30N 62°06' E 007°05'8 3.0
2020-Jul-03 04:00N 62°13' E 007°01'5 5.1
2020-Jul-03 03:00N 62°18' E 006°60'2 4.7
2020-Jul-03 02:30N 62°20' E 006°57'21 3.4
2020-Jul-02 20:30N 62°22' E 006°13'6 5.9
2020-Jul-02 19:29N 62°18' E 006°03'6 6.2
2020-Jul-02 18:30N 62°13' E 005°54'15 5.9
2020-Jul-02 16:00N 62°10' E 005°24'10 6.4
2020-Jul-02 14:30N 62°14' E 005°05'18 5.9
2020-Jul-02 11:30N 62°01' E 004°39'3 6.1
2020-Jul-02 11:00N 61°58' E 004°37'3 5.7
2020-Jul-02 10:30N 61°55' E 004°35'6 5.9
2020-Jul-02 09:30N 61°50' E 004°31'3 5.1
2020-Jul-02 09:00N 61°47' E 004°30'11 4.3
2020-Jul-02 06:29N 61°44' E 004°52'13 5.4
2020-Jul-02 04:00N 61°52' E 005°15'2 4.8
2020-Jul-02 03:30N 61°53' E 005°11'6 6.2
2020-Jul-02 02:30N 61°55' E 005°24'6 5.7
2020-Jul-02 01:30N 61°54' E 005°36'10 5.2
2020-Jul-01 23:30N 61°52' E 005°57'9 1.8
2020-Jul-01 18:30N 61°54' E 005°39'10 4.2
2020-Jul-01 16:00N 61°54' E 005°17'5 2.0
2020-Jul-01 13:25N 61°56' E 005°07'0 0.0
2020-Jul-01 05:19N 61°56' E 005°07'0 0.0
2020-Jul-01 03:59N 61°56' E 005°07'0 0.0
2020-Jul-01 02:30N 61°56' E 005°07'0 0.0
2020-Jun-30 23:58N 61°56' E 005°07'0 0.0
2020-Jun-30 21:30N 61°56' E 005°07'0 0.0
2020-Jun-30 18:29N 61°56' E 005°07'0 0.0
2020-Jun-30 17:56N 61°56' E 005°07'0 0.0
2020-Jun-30 17:30N 61°56' E 005°07'0 0.0
2020-Jun-30 16:30N 61°56' E 005°07'0 0.0
2020-Jun-30 15:28N 61°56' E 005°07'0 0.0
2020-Jun-30 14:26N 61°56' E 005°07'0 0.0
2020-Jun-30 13:29N 61°56' E 005°07'0 0.0
2020-Jun-30 11:54N 61°56' E 005°07'6 1.2
2020-Jun-30 07:29N 61°52' E 005°15'4 3.7
2020-Jun-30 06:30N 61°49' E 005°10'15 4.9
2020-Jun-30 03:30N 61°36' E 004°57'6 6.2
2020-Jun-30 02:31N 61°30' E 004°59'12 5.8
2020-Jun-30 00:31N 61°18' E 004°60'7 4.7
2020-Jun-29 23:01N 61°11' E 005°01'3 6.7
2020-Jun-29 22:30N 61°09' E 005°07'7 6.7
2020-Jun-29 21:30N 61°05' E 005°18'36 7.2
2020-Jun-29 16:30N 61°08' E 006°32'3 6.1
2020-Jun-29 16:00N 61°11' E 006°33'2 1.1
2020-Jun-29 13:59N 61°13' E 006°32'0 0.0
2020-Jun-29 13:29N 61°13' E 006°32'10 1.5
2020-Jun-29 06:59N 61°07' E 006°16'7 4.8
2020-Jun-29 05:30N 61°08' E 006°02'5 4.7
2020-Jun-29 04:30N 61°08' E 005°52'  
Track history (hours):
 
Tides and Currents Weather Stations Pressure Air Temp Water Temp Dewpoint Dewpoint Depression Visibility Wind Speed Wind Dir Waves Ship Positions

Christian Radich (Norway)

Last reported at 2020-Jul-09 03:00 UTC. Time now 2020-Jul-09 05:00 UTC.
Position N 66°14' E 012°53'.

Length 63 m; draft 4.9 m.

Type: Sailing vessel. MMSI: 258373000.

Date/timePositionNaut miles runAvg speedWind from/ knotsBaromVisibWave heightAir tempDewpointWater temp
2020-Jul-09 03:00N 66°14' E 012°53'19 3.9
2020-Jul-08 22:00N 65°58' E 012°26'6 3.7
2020-Jul-08 20:30N 65°52' E 012°23'12 3.8
2020-Jul-08 17:30N 65°41' E 012°15'2 4.0
2020-Jul-08 17:00N 65°39' E 012°15'6 3.9
2020-Jul-08 15:29N 65°33' E 012°13'5 3.2
2020-Jul-08 13:59N 65°29' E 012°13'0 0.0
2020-Jul-08 13:29N 65°29' E 012°13'0 0.0
2020-Jul-08 13:00N 65°29' E 012°13'0 0.0
2020-Jul-08 12:30N 65°29' E 012°13'0 0.0
2020-Jul-08 11:00N 65°29' E 012°13'6 1.1
2020-Jul-08 05:30N 65°34' E 012°13'12 4.7
2020-Jul-08 03:00N 65°44' E 012°28'6 1.5
2020-Jul-07 23:00N 65°42' E 012°15'5 5.0
2020-Jul-07 21:59N 65°37' E 012°13'9 5.8
2020-Jul-07 20:30N 65°30' E 011°60'8 3.9
2020-Jul-07 18:30N 65°23' E 012°05'2 1.0
2020-Jul-07 16:00N 65°25' E 012°08'0 0.1
2020-Jul-07 14:59N 65°25' E 012°08'0 0.0
2020-Jul-07 13:59N 65°25' E 012°08'0 0.0
2020-Jul-07 13:00N 65°25' E 012°08'0 0.0
2020-Jul-07 11:28N 65°25' E 012°08'0 0.0
2020-Jul-07 10:58N 65°25' E 012°08'15 4.3
2020-Jul-07 07:30N 65°12' E 011°52'7 3.4
2020-Jul-07 05:30N 65°05' E 011°48'2 3.0
2020-Jul-07 05:00N 65°04' E 011°46'5 3.5
2020-Jul-07 03:30N 65°00' E 011°37'2 4.2
2020-Jul-07 02:58N 64°58' E 011°34'18 6.0
2020-Jul-07 00:00N 64°46' E 011°03'9 5.8
2020-Jul-06 22:30N 64°41' E 010°48'20 5.6
2020-Jul-06 18:59N 64°35' E 010°04'2 4.4
2020-Jul-06 18:30N 64°35' E 009°59'5 5.0
2020-Jul-06 17:30N 64°35' E 009°47'3 5.5
2020-Jul-06 17:00N 64°34' E 009°41'24 4.8
2020-Jul-06 12:00N 64°29' E 008°47'4 4.3
2020-Jul-06 11:00N 64°26' E 008°55'4 4.4
2020-Jul-06 10:00N 64°23' E 009°02'2 4.4
2020-Jul-06 09:30N 64°21' E 009°06'5 5.0
2020-Jul-06 08:30N 64°18' E 009°13'3 5.7
2020-Jul-06 08:00N 64°16' E 009°18'19 5.4
2020-Jul-06 04:29N 64°01' E 009°46'10 6.7
2020-Jul-06 03:00N 63°51' E 009°40'4 7.6
2020-Jul-06 02:30N 63°48' E 009°35'8 7.9
2020-Jul-06 01:30N 63°41' E 009°29'24 6.9
2020-Jul-05 22:00N 63°27' E 008°46'14 7.0
2020-Jul-05 20:00N 63°20' E 008°18'28 7.1
2020-Jul-05 16:00N 63°04' E 007°25'4 7.5
2020-Jul-05 15:30N 63°03' E 007°17'22 7.3
2020-Jul-05 12:30N 62°50' E 006°39'16 8.1
2020-Jul-05 10:30N 62°37' E 006°18'10 1.9
2020-Jul-05 05:26N 62°28' E 006°09'0 0.0
2020-Jul-05 04:00N 62°28' E 006°09'0 0.0
2020-Jul-05 03:00N 62°28' E 006°09'0 0.0
2020-Jul-05 01:58N 62°28' E 006°09'0 0.0
2020-Jul-04 22:27N 62°28' E 006°09'0 0.0
2020-Jul-04 19:59N 62°28' E 006°09'0 0.0
2020-Jul-04 19:29N 62°28' E 006°09'0 0.0
2020-Jul-04 18:30N 62°28' E 006°09'0 0.0
2020-Jul-04 12:28N 62°28' E 006°09'0 0.0
2020-Jul-04 11:29N 62°28' E 006°09'10 1.2
2020-Jul-04 03:00N 62°25' E 006°31'19 3.5
2020-Jul-03 21:30N 62°12' E 007°01'2 4.5
2020-Jul-03 21:00N 62°10' E 007°01'7 2.2
2020-Jul-03 18:00N 62°06' E 007°12'0 0.0
2020-Jul-03 16:29N 62°06' E 007°12'0 0.1
2020-Jul-03 16:00N 62°06' E 007°12'0 0.1
2020-Jul-03 15:30N 62°06' E 007°12'0 0.1
2020-Jul-03 14:30N 62°06' E 007°12'0 0.1
2020-Jul-03 14:00N 62°06' E 007°12'0 0.0
2020-Jul-03 13:30N 62°06' E 007°12'0 0.0
2020-Jul-03 10:28N 62°06' E 007°12'0 0.1
2020-Jul-03 10:00N 62°06' E 007°12'0 0.0
2020-Jul-03 09:30N 62°06' E 007°12'0 0.0
2020-Jul-03 09:00N 62°06' E 007°12'0 0.0
2020-Jul-03 08:30N 62°06' E 007°12'3 1.7
2020-Jul-03 06:30N 62°06' E 007°05'8 3.0
2020-Jul-03 04:00N 62°13' E 007°01'5 5.1
2020-Jul-03 03:00N 62°18' E 006°60'2 4.7
2020-Jul-03 02:30N 62°20' E 006°57'21 3.4
2020-Jul-02 20:30N 62°22' E 006°13'6 5.9
2020-Jul-02 19:29N 62°18' E 006°03'6 6.2
2020-Jul-02 18:30N 62°13' E 005°54'15 5.9
2020-Jul-02 16:00N 62°10' E 005°24'10 6.4
2020-Jul-02 14:30N 62°14' E 005°05'18 5.9
2020-Jul-02 11:30N 62°01' E 004°39'3 6.1
2020-Jul-02 11:00N 61°58' E 004°37'3 5.7
2020-Jul-02 10:30N 61°55' E 004°35'6 5.9
2020-Jul-02 09:30N 61°50' E 004°31'3 5.1
2020-Jul-02 09:00N 61°47' E 004°30'11 4.3
2020-Jul-02 06:29N 61°44' E 004°52'13 5.4
2020-Jul-02 04:00N 61°52' E 005°15'2 4.8
2020-Jul-02 03:30N 61°53' E 005°11'6 6.2
2020-Jul-02 02:30N 61°55' E 005°24'6 5.7
2020-Jul-02 01:30N 61°54' E 005°36'10 5.2
2020-Jul-01 23:30N 61°52' E 005°57'9 1.8
2020-Jul-01 18:30N 61°54' E 005°39'10 4.2
2020-Jul-01 16:00N 61°54' E 005°17'5 2.0
2020-Jul-01 13:25N 61°56' E 005°07'0 0.0
2020-Jul-01 05:19N 61°56' E 005°07'0 0.0
2020-Jul-01 03:59N 61°56' E 005°07'0 0.0
2020-Jul-01 02:30N 61°56' E 005°07'0 0.0
2020-Jun-30 23:58N 61°56' E 005°07'0 0.0
2020-Jun-30 21:30N 61°56' E 005°07'0 0.0
2020-Jun-30 18:29N 61°56' E 005°07'0 0.0
2020-Jun-30 17:56N 61°56' E 005°07'0 0.0
2020-Jun-30 17:30N 61°56' E 005°07'0 0.0
2020-Jun-30 16:30N 61°56' E 005°07'0 0.0
2020-Jun-30 15:28N 61°56' E 005°07'0 0.0
2020-Jun-30 14:26N 61°56' E 005°07'0 0.0
2020-Jun-30 13:29N 61°56' E 005°07'0 0.0
2020-Jun-30 11:54N 61°56' E 005°07'6 1.2
2020-Jun-30 07:29N 61°52' E 005°15'4 3.7
2020-Jun-30 06:30N 61°49' E 005°10'15 4.9
2020-Jun-30 03:30N 61°36' E 004°57'6 6.2
2020-Jun-30 02:31N 61°30' E 004°59'12 5.8
2020-Jun-30 00:31N 61°18' E 004°60'7 4.7
2020-Jun-29 23:01N 61°11' E 005°01'3 6.7
2020-Jun-29 22:30N 61°09' E 005°07'7 6.7
2020-Jun-29 21:30N 61°05' E 005°18'36 7.2
2020-Jun-29 16:30N 61°08' E 006°32'3 6.1
2020-Jun-29 16:00N 61°11' E 006°33'2 1.1
2020-Jun-29 13:59N 61°13' E 006°32'0 0.0
2020-Jun-29 13:29N 61°13' E 006°32'10 1.5
2020-Jun-29 06:59N 61°07' E 006°16'7 4.8
2020-Jun-29 05:30N 61°08' E 006°02'5 4.7
2020-Jun-29 04:30N 61°08' E 005°52'  

Dump ship's entire track history